Time;durP1;ratioP1;P1;durP2;ratioP2;P2;SDS_P1;SDS_P2;PMS_P1;PMS_P2;Temp;Humidity;BMP_temperature;BMP_pressure;BME280_temperature;BME280_humidity;BME280_pressure;Samples;Min_cycle;Max_cycle;Signal;HPM_P1;HPM_P2
2023/06/06 00:01:21;;;;;;;6.90;3.58;;;18.90;99.90;;;;;;5012568;28;20054;-78
2023/06/06 00:03:48;;;;;;;5.32;3.33;;;19.00;99.90;;;;;;5014905;28;20131;-78
2023/06/06 00:06:20;;;;;;;6.97;3.47;;;19.00;99.90;;;;;;5010634;28;20629;-78
2023/06/06 00:08:50;;;;;;;8.40;3.57;;;19.00;99.90;;;;;;5013683;28;20044;-78
2023/06/06 00:11:17;;;;;;;5.15;3.08;;;18.90;99.90;;;;;;5011494;28;20068;-78
2023/06/06 00:13:48;;;;;;;6.75;3.53;;;18.90;99.90;;;;;;5015389;28;20052;-78
2023/06/06 00:16:16;;;;;;;7.05;3.70;;;18.90;99.90;;;;;;5013198;28;20092;-78
2023/06/06 00:18:50;;;;;;;5.78;3.25;;;18.90;99.90;;;;;;5013065;28;20448;-78
2023/06/06 00:21:18;;;;;;;7.53;3.45;;;18.80;99.90;;;;;;5032754;28;20214;-78
2023/06/06 00:23:45;;;;;;;5.57;3.22;;;18.80;99.90;;;;;;5030599;28;20514;-78
2023/06/06 00:26:12;;;;;;;5.28;3.60;;;18.80;99.90;;;;;;5041129;28;22350;-78
2023/06/06 00:28:41;;;;;;;5.10;3.47;;;18.80;99.90;;;;;;5011766;28;20049;-78
2023/06/06 00:31:08;;;;;;;8.95;3.65;;;18.70;99.90;;;;;;4996358;28;20190;-78
2023/06/06 00:33:35;;;;;;;5.45;3.28;;;18.70;99.90;;;;;;5017564;28;23468;-78
2023/06/06 00:36:03;;;;;;;5.30;2.88;;;18.70;99.90;;;;;;5013510;28;20052;-78
2023/06/06 00:38:31;;;;;;;5.22;2.83;;;18.80;99.90;;;;;;4995781;28;20089;-78
2023/06/06 00:40:58;;;;;;;4.72;2.85;;;18.70;99.90;;;;;;5011577;28;20812;-77
2023/06/06 00:43:25;;;;;;;4.25;2.13;;;18.70;99.90;;;;;;5013310;28;20789;-77
2023/06/06 00:45:52;;;;;;;5.68;2.28;;;18.80;99.90;;;;;;5024874;28;20692;-78
2023/06/06 00:48:20;;;;;;;5.15;2.63;;;18.80;99.90;;;;;;5027463;28;20780;-77
2023/06/06 00:50:48;;;;;;;7.45;3.38;;;18.80;99.90;;;;;;5024927;28;20075;-78
2023/06/06 00:53:16;;;;;;;4.10;2.25;;;18.80;99.90;;;;;;5011244;28;20061;-77
2023/06/06 00:55:44;;;;;;;3.92;2.70;;;18.90;99.90;;;;;;4996753;28;20060;-78
2023/06/06 00:58:12;;;;;;;3.85;2.60;;;18.80;99.90;;;;;;5015309;28;20048;-78
2023/06/06 01:00:40;;;;;;;4.47;2.20;;;18.90;99.90;;;;;;5012707;28;20048;-78
2023/06/06 01:03:14;;;;;;;5.45;2.90;;;18.90;99.90;;;;;;4991473;28;20945;-78
2023/06/06 01:05:42;;;;;;;6.30;3.35;;;18.80;99.90;;;;;;5020058;28;20866;-78
2023/06/06 01:08:12;;;;;;;5.57;2.83;;;18.70;99.90;;;;;;5012131;28;20087;-78
2023/06/06 01:10:39;;;;;;;4.47;2.38;;;18.80;99.90;;;;;;5005699;28;20059;-78
2023/06/06 01:13:21;;;;;;;4.38;2.53;;;18.80;99.90;;;;;;5000504;28;20048;-78
2023/06/06 01:16:12;;;;;;;4.78;2.92;;;18.80;99.90;;;;;;5010012;28;20052;-78
2023/06/06 01:18:41;;;;;;;6.03;2.83;;;18.80;99.90;;;;;;4995917;28;20075;-78
2023/06/06 01:21:10;;;;;;;3.97;2.78;;;18.80;99.90;;;;;;5009597;28;20132;-77
2023/06/06 01:23:37;;;;;;;5.25;2.60;;;18.80;99.90;;;;;;5002396;28;20059;-78
2023/06/06 01:26:05;;;;;;;5.53;2.92;;;18.80;99.90;;;;;;5000222;28;20462;-77
2023/06/06 01:28:33;;;;;;;4.05;2.40;;;18.80;99.90;;;;;;5017302;28;20040;-77
2023/06/06 01:31:00;;;;;;;4.80;2.53;;;18.80;99.90;;;;;;5012645;28;20056;-77
2023/06/06 01:33:30;;;;;;;6.82;4.10;;;18.80;99.90;;;;;;4993699;28;20053;-78
2023/06/06 01:36:27;;;;;;;4.95;2.97;;;18.80;99.90;;;;;;4994927;28;20055;-78
2023/06/06 01:39:17;;;;;;;6.60;3.45;;;18.80;99.90;;;;;;4990554;28;20064;-78
2023/06/06 01:41:47;;;;;;;5.82;3.63;;;18.70;99.90;;;;;;5006212;28;20052;-78
2023/06/06 01:44:15;;;;;;;6.00;3.33;;;18.80;99.90;;;;;;5010032;28;20532;-78
2023/06/06 01:46:43;;;;;;;6.35;4.18;;;18.80;99.90;;;;;;4994748;28;20049;-78
2023/06/06 01:49:11;;;;;;;6.72;3.78;;;18.70;99.90;;;;;;5013318;28;20040;-78
2023/06/06 01:51:38;;;;;;;6.72;3.70;;;18.70;99.90;;;;;;5002228;28;20048;-78
2023/06/06 01:54:05;;;;;;;6.20;3.83;;;18.60;99.90;;;;;;5008915;28;20134;-78
2023/06/06 01:56:33;;;;;;;5.50;3.45;;;18.60;99.90;;;;;;5027543;28;20602;-78
2023/06/06 01:59:01;;;;;;;5.65;3.00;;;18.60;99.90;;;;;;4999470;28;20179;-78
2023/06/06 02:01:29;;;;;;;6.85;3.45;;;18.70;99.90;;;;;;5045271;28;20075;-78
2023/06/06 02:03:56;;;;;;;5.25;3.53;;;18.70;99.90;;;;;;5033701;28;20543;-78
2023/06/06 02:06:24;;;;;;;7.07;4.75;;;18.70;99.90;;;;;;5004922;28;20423;-78
2023/06/06 02:08:51;;;;;;;8.32;4.57;;;18.70;99.90;;;;;;5035854;28;20131;-78
2023/06/06 02:11:18;;;;;;;5.55;4.00;;;18.60;99.90;;;;;;5018686;28;20377;-78
2023/06/06 02:13:47;;;;;;;6.53;4.22;;;18.70;99.90;;;;;;5000426;28;20101;-78
2023/06/06 02:16:15;;;;;;;6.45;3.95;;;18.70;99.90;;;;;;5007201;28;20471;-79
2023/06/06 02:18:44;;;;;;;6.45;3.67;;;18.70;99.90;;;;;;4992992;28;20049;-79
2023/06/06 02:21:12;;;;;;;8.55;3.85;;;18.70;99.90;;;;;;5012246;28;20049;-79
2023/06/06 02:23:39;;;;;;;5.78;3.63;;;18.70;99.90;;;;;;5018556;28;22354;-79
2023/06/06 02:26:07;;;;;;;5.72;3.90;;;18.60;99.90;;;;;;5016361;28;20209;-79
2023/06/06 02:28:34;;;;;;;7.53;4.20;;;18.60;99.90;;;;;;5010970;28;20518;-78
2023/06/06 02:31:03;;;;;;;6.88;4.10;;;18.50;99.90;;;;;;4999905;28;20048;-79
2023/06/06 02:33:32;;;;;;;11.10;3.67;;;18.50;99.90;;;;;;4999648;28;20507;-79
2023/06/06 02:36:00;;;;;;;6.10;4.50;;;18.60;99.90;;;;;;5021618;28;20066;-78
2023/06/06 02:38:27;;;;;;;6.25;3.63;;;18.60;99.90;;;;;;5026178;28;20504;-78
2023/06/06 02:40:54;;;;;;;9.52;3.80;;;18.60;99.90;;;;;;5017905;28;20051;-79
2023/06/06 02:43:21;;;;;;;6.25;3.75;;;18.60;99.90;;;;;;5030833;28;20546;-79
2023/06/06 02:45:50;;;;;;;6.50;4.18;;;18.60;99.90;;;;;;4996072;28;20068;-78
2023/06/06 02:48:17;;;;;;;6.20;3.80;;;18.60;99.90;;;;;;5013367;28;20429;-79
2023/06/06 02:50:47;;;;;;;7.43;3.92;;;18.60;99.90;;;;;;5015838;28;20040;-78
2023/06/06 02:53:15;;;;;;;6.43;4.18;;;18.60;99.90;;;;;;5027688;28;21370;-79
2023/06/06 02:55:42;;;;;;;5.60;3.72;;;18.60;99.90;;;;;;5013003;28;20234;-78
2023/06/06 02:58:29;;;;;;;8.30;3.47;;;18.60;99.90;;;;;;4996582;28;21278;-78
2023/06/06 03:00:57;;;;;;;7.72;3.95;;;18.60;99.90;;;;;;5011369;28;20443;-79
2023/06/06 03:03:25;;;;;;;6.80;3.92;;;18.70;99.90;;;;;;5025124;28;20486;-78
2023/06/06 03:05:54;;;;;;;8.75;4.25;;;18.70;99.90;;;;;;5031715;28;20052;-79
2023/06/06 03:08:22;;;;;;;8.18;4.13;;;18.60;99.90;;;;;;5014332;28;22368;-79
2023/06/06 03:10:51;;;;;;;6.88;4.07;;;18.60;99.90;;;;;;5015003;28;20037;-79
2023/06/06 03:13:19;;;;;;;6.88;4.05;;;18.60;99.90;;;;;;5015756;28;21631;-79
2023/06/06 03:15:46;;;;;;;8.90;4.82;;;18.60;99.90;;;;;;5029549;28;20049;-79
2023/06/06 03:18:18;;;;;;;7.93;4.13;;;18.60;99.90;;;;;;5019633;28;20973;-79
2023/06/06 03:20:53;;;;;;;6.15;4.00;;;18.60;99.90;;;;;;5028068;28;20556;-79
2023/06/06 03:23:23;;;;;;;7.93;4.55;;;18.60;99.90;;;;;;5007492;28;20060;-79
2023/06/06 03:25:51;;;;;;;6.90;4.50;;;18.60;99.90;;;;;;5031220;28;20280;-79
2023/06/06 03:28:20;;;;;;;8.85;4.78;;;18.60;99.90;;;;;;5030706;28;20502;-79
2023/06/06 03:30:50;;;;;;;9.13;3.97;;;18.50;99.90;;;;;;5003900;28;20186;-79
2023/06/06 03:33:17;;;;;;;7.10;4.55;;;18.60;99.90;;;;;;5016810;28;20067;-79
2023/06/06 03:35:44;;;;;;;8.07;4.28;;;18.60;99.90;;;;;;5044968;28;20052;-79
2023/06/06 03:38:13;;;;;;;6.25;4.00;;;18.60;99.90;;;;;;5017734;28;20853;-79
2023/06/06 03:40:42;;;;;;;6.90;4.43;;;18.60;99.90;;;;;;5002991;28;20067;-79
2023/06/06 03:43:09;;;;;;;10.90;4.82;;;18.50;99.90;;;;;;5029941;28;20047;-79
2023/06/06 03:45:39;;;;;;;6.97;3.92;;;18.50;99.90;;;;;;5012118;28;20052;-79
2023/06/06 03:48:09;;;;;;;5.25;3.90;;;18.60;99.90;;;;;;5029935;28;20075;-79
2023/06/06 03:50:38;;;;;;;7.25;4.30;;;18.60;99.90;;;;;;5033108;28;20049;-79
2023/06/06 03:53:06;;;;;;;6.15;3.60;;;18.50;99.90;;;;;;5005218;28;20673;-79
2023/06/06 03:55:34;;;;;;;7.65;4.30;;;18.50;99.90;;;;;;5018919;28;20530;-79
2023/06/06 03:58:01;;;;;;;6.72;4.60;;;18.60;99.90;;;;;;5011582;28;20049;-79
2023/06/06 04:00:28;;;;;;;11.35;5.03;;;18.50;99.90;;;;;;5003611;28;20049;-79
2023/06/06 04:02:55;;;;;;;8.82;4.50;;;18.40;99.90;;;;;;5012454;28;20049;-79
2023/06/06 04:05:23;;;;;;;8.00;4.30;;;18.30;99.90;;;;;;5026943;28;20044;-79
2023/06/06 04:07:50;;;;;;;7.80;4.75;;;18.30;99.90;;;;;;5007145;28;20036;-78
2023/06/06 04:10:19;;;;;;;9.07;4.35;;;18.30;99.90;;;;;;5006697;28;20115;-78
2023/06/06 04:12:46;;;;;;;7.40;4.65;;;18.30;99.90;;;;;;5018128;28;20048;-78
2023/06/06 04:15:13;;;;;;;6.85;4.40;;;18.30;99.90;;;;;;5000938;28;20079;-78
2023/06/06 04:17:40;;;;;;;6.72;4.78;;;18.30;99.90;;;;;;5001731;28;20060;-78
2023/06/06 04:20:08;;;;;;;7.88;4.47;;;18.20;99.90;;;;;;5002032;28;20613;-78
2023/06/06 04:22:36;;;;;;;7.82;4.57;;;18.30;99.90;;;;;;4995313;28;20056;-78
2023/06/06 04:25:03;;;;;;;7.32;5.00;;;18.20;99.90;;;;;;5012988;28;20037;-78
2023/06/06 04:27:31;;;;;;;8.07;4.78;;;18.20;99.90;;;;;;5002610;28;20049;-78
2023/06/06 04:29:59;;;;;;;9.57;5.80;;;18.30;99.90;;;;;;5028927;28;20110;-79
2023/06/06 04:32:26;;;;;;;7.65;4.90;;;18.30;99.90;;;;;;5001924;28;20555;-78
2023/06/06 04:34:57;;;;;;;7.93;4.97;;;18.40;99.90;;;;;;4998213;28;20218;-78
2023/06/06 04:37:28;;;;;;;10.52;4.90;;;18.40;99.90;;;;;;5014858;28;20045;-78
2023/06/06 04:39:56;;;;;;;10.07;5.35;;;18.40;99.90;;;;;;5008658;28;20041;-78
2023/06/06 04:42:32;;;;;;;7.78;4.55;;;18.40;99.90;;;;;;4999788;28;20059;-79
2023/06/06 04:45:03;;;;;;;7.07;4.53;;;18.50;99.90;;;;;;5027485;28;20049;-78
2023/06/06 04:47:31;;;;;;;6.82;4.50;;;18.40;99.90;;;;;;5028446;28;20054;-78
2023/06/06 04:49:59;;;;;;;6.75;4.63;;;18.50;99.90;;;;;;5003222;28;20258;-79
2023/06/06 04:52:28;;;;;;;10.13;5.03;;;18.50;99.90;;;;;;5010894;28;20048;-78
2023/06/06 04:54:55;;;;;;;7.40;5.10;;;18.50;99.90;;;;;;5007762;28;20141;-78
2023/06/06 04:57:23;;;;;;;10.52;4.88;;;18.50;99.90;;;;;;5022023;28;20056;-78
2023/06/06 04:59:53;;;;;;;8.93;5.40;;;18.40;99.90;;;;;;5015071;28;20044;-78
2023/06/06 05:02:22;;;;;;;7.80;4.85;;;18.50;99.90;;;;;;5023750;28;20087;-78
2023/06/06 05:04:54;;;;;;;11.57;5.82;;;18.40;99.90;;;;;;5017116;28;20044;-78
2023/06/06 05:07:25;;;;;;;11.23;5.53;;;18.50;99.90;;;;;;5030223;28;20164;-78
2023/06/06 05:09:55;;;;;;;13.68;6.55;;;18.50;99.90;;;;;;5024850;28;20037;-78
2023/06/06 05:12:24;;;;;;;12.75;5.90;;;18.50;99.90;;;;;;5035992;28;20060;-78
2023/06/06 05:14:51;;;;;;;9.18;5.68;;;18.50;99.90;;;;;;5011704;28;20053;-78
2023/06/06 05:17:20;;;;;;;9.55;5.72;;;18.50;99.90;;;;;;5002187;28;21692;-78
2023/06/06 05:19:48;;;;;;;9.85;6.72;;;18.50;99.90;;;;;;5007789;28;23366;-78
2023/06/06 05:22:16;;;;;;;10.57;7.32;;;18.60;99.90;;;;;;5018698;28;20052;-78
2023/06/06 05:24:43;;;;;;;11.40;6.93;;;18.50;99.90;;;;;;5021616;28;20048;-77
2023/06/06 05:27:11;;;;;;;13.02;6.65;;;18.60;99.90;;;;;;5026333;28;20064;-77
2023/06/06 05:29:38;;;;;;;10.73;7.03;;;18.50;99.90;;;;;;5010193;28;20516;-78
2023/06/06 05:32:06;;;;;;;10.45;7.18;;;18.50;99.90;;;;;;5014944;28;20858;-78
2023/06/06 05:34:33;;;;;;;10.95;7.47;;;18.50;99.90;;;;;;5012316;28;20044;-78
2023/06/06 05:37:00;;;;;;;10.93;6.55;;;18.60;99.90;;;;;;5017800;28;20693;-78
2023/06/06 05:39:28;;;;;;;11.30;6.22;;;18.60;99.90;;;;;;4998130;28;20045;-78
2023/06/06 05:41:55;;;;;;;11.77;7.13;;;18.70;99.90;;;;;;5011783;28;20179;-78
2023/06/06 05:44:23;;;;;;;9.05;6.75;;;18.70;99.90;;;;;;5013454;28;20048;-78
2023/06/06 05:46:54;;;;;;;11.40;7.68;;;18.70;99.90;;;;;;5014274;28;20053;-77
2023/06/06 05:49:23;;;;;;;;;;;18.70;99.90;;;;;;5030417;28;20059;-76
2023/06/06 05:51:50;;;;;;;9.63;6.15;;;18.70;99.90;;;;;;5009956;28;20291;-77
2023/06/06 05:54:18;;;;;;;10.45;6.68;;;18.80;99.90;;;;;;5008322;28;20071;-77
2023/06/06 05:56:45;;;;;;;12.65;7.53;;;18.80;99.90;;;;;;5017277;28;20063;-77
2023/06/06 05:59:13;;;;;;;12.68;8.68;;;18.80;99.90;;;;;;5016842;28;20060;-77
2023/06/06 06:01:42;;;;;;;12.90;8.60;;;18.80;99.90;;;;;;5005275;28;20067;-78
2023/06/06 06:04:10;;;;;;;13.05;9.55;;;18.80;99.90;;;;;;5013464;28;20059;-77
2023/06/06 06:06:38;;;;;;;12.25;8.88;;;18.80;99.90;;;;;;5022275;28;20769;-78
2023/06/06 06:09:06;;;;;;;14.15;9.65;;;18.80;99.90;;;;;;5020086;28;20087;-77
2023/06/06 06:11:33;;;;;;;12.88;7.88;;;18.90;99.90;;;;;;5034824;28;20106;-77
2023/06/06 06:14:00;;;;;;;10.10;7.70;;;18.90;99.90;;;;;;5020535;28;20180;-77
2023/06/06 06:16:27;;;;;;;12.45;9.85;;;19.00;99.90;;;;;;5020503;28;20123;-77
2023/06/06 06:18:55;;;;;;;14.23;8.32;;;19.00;99.90;;;;;;5024835;28;20045;-77
2023/06/06 06:21:24;;;;;;;12.40;9.27;;;18.90;99.90;;;;;;5034077;28;20124;-77
2023/06/06 06:23:51;;;;;;;13.38;9.00;;;19.00;99.90;;;;;;5024622;28;20314;-77
2023/06/06 06:26:19;;;;;;;15.93;9.05;;;19.00;99.90;;;;;;5017301;28;20048;-77
2023/06/06 06:28:46;;;;;;;12.52;8.63;;;19.00;99.90;;;;;;5027681;28;20053;-77
2023/06/06 06:31:14;;;;;;;12.23;9.48;;;19.00;99.90;;;;;;5020980;28;20052;-77
2023/06/06 06:33:41;;;;;;;12.82;9.27;;;19.00;99.90;;;;;;5017927;28;20631;-77
2023/06/06 06:36:08;;;;;;;14.60;9.85;;;19.00;99.90;;;;;;5055235;28;20048;-78
2023/06/06 06:38:36;;;;;;;11.63;8.32;;;19.10;99.90;;;;;;5056495;28;20557;-77
2023/06/06 06:41:03;;;;;;;15.13;9.50;;;19.10;99.90;;;;;;5019267;28;22217;-77
2023/06/06 06:43:30;;;;;;;13.45;9.18;;;19.10;99.90;;;;;;5022988;28;20068;-77
2023/06/06 06:46:01;;;;;;;15.45;10.38;;;19.10;99.90;;;;;;5010019;28;20055;-77
2023/06/06 06:48:28;;;;;;;13.82;10.68;;;19.20;99.90;;;;;;5035468;28;20042;-77
2023/06/06 06:50:55;;;;;;;15.85;9.55;;;19.20;99.90;;;;;;5016908;28;20045;-77
2023/06/06 06:53:25;;;;;;;14.65;9.85;;;19.20;99.90;;;;;;5023887;28;20178;-76
2023/06/06 06:55:54;;;;;;;16.88;10.60;;;19.20;99.90;;;;;;5020659;28;20534;-77
2023/06/06 06:58:33;;;;;;;16.70;11.05;;;19.20;99.90;;;;;;5004009;28;20601;-77
2023/06/06 07:01:02;;;;;;;16.13;10.80;;;19.20;99.90;;;;;;5014082;28;20052;-77
2023/06/06 07:03:34;;;;;;;16.25;10.70;;;19.20;99.90;;;;;;5028518;28;20051;-77
2023/06/06 07:06:06;;;;;;;16.83;11.60;;;19.20;99.90;;;;;;5022637;28;20052;-77
2023/06/06 07:08:33;;;;;;;17.98;11.98;;;19.20;99.90;;;;;;5005979;28;20057;-77
2023/06/06 07:11:00;;;;;;;17.80;11.23;;;19.10;99.90;;;;;;5019059;28;20049;-77
2023/06/06 07:13:27;;;;;;;17.25;11.77;;;19.10;99.90;;;;;;5020201;28;20060;-77
2023/06/06 07:15:54;;;;;;;20.35;11.57;;;19.20;99.90;;;;;;5017171;28;20041;-77
2023/06/06 07:18:22;;;;;;;17.15;11.82;;;19.10;99.90;;;;;;5025028;28;20403;-77
2023/06/06 07:20:49;;;;;;;16.85;11.45;;;19.20;99.90;;;;;;5004843;28;20142;-77
2023/06/06 07:23:16;;;;;;;19.80;13.07;;;19.10;99.90;;;;;;5006470;28;22354;-77
2023/06/06 07:25:43;;;;;;;19.52;13.05;;;19.10;99.90;;;;;;5017638;28;22375;-77
2023/06/06 07:28:13;;;;;;;19.10;12.15;;;19.20;99.90;;;;;;5015189;28;20075;-77
2023/06/06 07:30:41;;;;;;;20.13;11.50;;;19.20;99.90;;;;;;5025677;28;20436;-77
2023/06/06 07:33:08;;;;;;;17.20;11.07;;;19.20;99.90;;;;;;5030669;28;20098;-77
2023/06/06 07:35:36;;;;;;;16.17;11.45;;;19.20;99.90;;;;;;5017737;28;22466;-77
2023/06/06 07:38:03;;;;;;;21.27;13.00;;;19.20;99.90;;;;;;4999625;28;20412;-78
2023/06/06 07:40:30;;;;;;;18.83;12.52;;;19.20;99.90;;;;;;5018002;28;20041;-77
2023/06/06 07:42:59;;;;;;;19.90;13.43;;;19.30;99.90;;;;;;5027161;28;20130;-78
2023/06/06 07:45:28;;;;;;;18.92;13.48;;;19.30;99.90;;;;;;5025359;28;20045;-77
2023/06/06 07:47:56;;;;;;;19.50;12.68;;;19.30;99.90;;;;;;5002968;28;20052;-78
2023/06/06 07:50:25;;;;;;;18.95;12.85;;;19.30;99.90;;;;;;5021196;28;20068;-78
2023/06/06 07:52:52;;;;;;;19.20;13.57;;;19.30;99.90;;;;;;5015494;28;20059;-78
2023/06/06 07:55:20;;;;;;;18.67;12.43;;;19.40;99.90;;;;;;5021711;28;20048;-78
2023/06/06 07:57:47;;;;;;;18.70;12.05;;;19.40;99.90;;;;;;5021413;28;20522;-78
2023/06/06 08:00:15;;;;;;;19.15;13.10;;;19.40;99.90;;;;;;5019168;28;20049;-78
2023/06/06 08:02:42;;;;;;;20.58;13.50;;;19.40;99.90;;;;;;5032186;28;20140;-78
2023/06/06 08:05:11;;;;;;;19.60;12.88;;;19.40;99.90;;;;;;5039540;28;20119;-77
2023/06/06 08:07:42;;;;;;;18.00;12.15;;;19.50;99.90;;;;;;5023399;28;20045;-77
2023/06/06 08:10:10;;;;;;;21.15;13.95;;;19.60;99.90;;;;;;5002471;28;22258;-77
2023/06/06 08:12:38;;;;;;;19.40;13.75;;;19.60;99.90;;;;;;5014321;28;20057;-77
2023/06/06 08:15:06;;;;;;;23.20;14.77;;;19.70;99.90;;;;;;5018736;28;20765;-77
2023/06/06 08:17:33;;;;;;;21.08;14.45;;;19.70;99.90;;;;;;5015131;28;20649;-77
2023/06/06 08:20:00;;;;;;;21.67;14.15;;;19.70;99.90;;;;;;5018707;28;20048;-77
2023/06/06 08:22:29;;;;;;;21.02;13.07;;;19.80;99.90;;;;;;5016209;28;20053;-77
2023/06/06 08:24:56;;;;;;;18.70;12.52;;;19.80;99.90;;;;;;5015220;28;20187;-77
2023/06/06 08:27:23;;;;;;;22.75;13.13;;;19.80;99.90;;;;;;5007385;28;20041;-77
2023/06/06 08:29:50;;;;;;;19.45;12.45;;;19.80;99.90;;;;;;5017577;28;20039;-77
2023/06/06 08:32:17;;;;;;;20.58;13.68;;;19.80;99.90;;;;;;5029950;28;20143;-77
2023/06/06 08:34:45;;;;;;;14.73;10.27;;;19.90;99.90;;;;;;5025788;28;20093;-77
2023/06/06 08:37:12;;;;;;;17.55;10.75;;;19.90;99.90;;;;;;5019272;28;20868;-77
2023/06/06 08:39:40;;;;;;;13.38;8.63;;;19.90;99.90;;;;;;5013229;28;20067;-77
2023/06/06 08:42:09;;;;;;;12.98;8.82;;;20.00;99.90;;;;;;5029186;28;20119;-77
2023/06/06 08:44:37;;;;;;;11.63;8.10;;;20.00;99.90;;;;;;5009317;28;20086;-75
2023/06/06 08:47:05;;;;;;;10.07;7.13;;;20.10;99.90;;;;;;5041852;28;20055;-75
2023/06/06 08:49:34;;;;;;;11.27;6.90;;;20.10;99.90;;;;;;5033605;28;20647;-75
2023/06/06 08:52:03;;;;;;;8.95;6.30;;;20.20;99.90;;;;;;5022014;28;20056;-75
2023/06/06 08:54:31;;;;;;;11.00;7.32;;;20.30;99.90;;;;;;4999588;28;20592;-75
2023/06/06 08:57:07;;;;;;;9.82;7.25;;;20.30;99.90;;;;;;5022609;28;20044;-75
2023/06/06 08:59:38;;;;;;;9.65;6.97;;;20.40;99.90;;;;;;5031459;28;20118;-75
2023/06/06 09:02:08;;;;;;;10.10;7.45;;;20.50;99.90;;;;;;5031589;28;20443;-75
2023/06/06 09:04:36;;;;;;;12.98;8.98;;;20.50;99.90;;;;;;5016048;28;20044;-75
2023/06/06 09:07:08;;;;;;;11.93;8.25;;;20.40;99.90;;;;;;5012741;28;20094;-75
2023/06/06 09:09:37;;;;;;;11.18;7.78;;;20.40;99.90;;;;;;5014281;28;20048;-75
2023/06/06 09:12:06;;;;;;;14.02;9.45;;;20.50;99.90;;;;;;5020948;28;20045;-75
2023/06/06 09:14:34;;;;;;;13.13;8.82;;;20.50;99.90;;;;;;5014945;28;20617;-75
2023/06/06 09:17:02;;;;;;;10.30;6.85;;;20.50;99.90;;;;;;5018118;28;20053;-75
2023/06/06 09:19:31;;;;;;;9.82;7.03;;;20.60;99.90;;;;;;5043530;28;20049;-75
2023/06/06 09:21:59;;;;;;;8.95;6.70;;;20.60;99.90;;;;;;5013898;28;20067;-75
2023/06/06 09:24:28;;;;;;;7.80;6.30;;;20.60;99.90;;;;;;5025312;28;20083;-76
2023/06/06 09:26:55;;;;;;;7.55;5.53;;;20.80;99.90;;;;;;5036002;28;20048;-75
2023/06/06 09:29:24;;;;;;;8.27;6.38;;;21.10;99.90;;;;;;5028357;28;20052;-76
2023/06/06 09:31:51;;;;;;;8.70;6.88;;;21.20;99.90;;;;;;5011533;28;20387;-75
2023/06/06 09:34:25;;;;;;;9.82;7.28;;;21.30;99.90;;;;;;5020134;28;20048;-75
2023/06/06 09:36:53;;;;;;;10.70;8.30;;;21.40;99.90;;;;;;5021403;28;21329;-76
2023/06/06 09:39:20;;;;;;;9.27;7.28;;;21.30;99.90;;;;;;5017043;28;20411;-76
2023/06/06 09:41:48;;;;;;;8.43;6.25;;;21.30;99.90;;;;;;5021632;28;20051;-76
2023/06/06 09:44:28;;;;;;;9.88;6.80;;;21.30;99.90;;;;;;5021884;28;20053;-76
2023/06/06 09:47:00;;;;;;;7.65;6.07;;;21.20;99.90;;;;;;5024209;28;20054;-75
2023/06/06 09:49:35;;;;;;;7.35;6.05;;;21.30;99.90;;;;;;5019185;28;20049;-75
2023/06/06 09:52:03;;;;;;;8.60;6.53;;;21.40;99.90;;;;;;4996850;28;22362;-77
2023/06/06 09:54:31;;;;;;;8.57;6.60;;;21.50;99.90;;;;;;5017135;28;20092;-76
2023/06/06 09:56:59;;;;;;;8.75;6.35;;;21.50;99.90;;;;;;5012079;28;20071;-76
2023/06/06 09:59:29;;;;;;;8.23;6.15;;;21.50;99.90;;;;;;5016343;28;20271;-76
2023/06/06 10:02:00;;;;;;;6.78;5.50;;;21.30;99.90;;;;;;5020591;28;20114;-76
2023/06/06 10:04:27;;;;;;;6.22;5.00;;;21.20;99.90;;;;;;5011274;28;22298;-76
2023/06/06 10:06:57;;;;;;;6.75;4.72;;;21.00;99.90;;;;;;5012748;28;20187;-76
2023/06/06 10:09:26;;;;;;;8.07;5.43;;;20.90;99.90;;;;;;5020698;28;20483;-77
2023/06/06 10:11:54;;;;;;;6.50;5.40;;;20.80;99.90;;;;;;5014031;28;20041;-76
2023/06/06 10:14:21;;;;;;;8.45;5.72;;;20.70;99.90;;;;;;5014870;28;20048;-76
2023/06/06 10:16:49;;;;;;;6.82;4.78;;;20.60;99.90;;;;;;5016681;28;20271;-76
2023/06/06 10:19:20;;;;;;;7.00;4.45;;;20.60;99.90;;;;;;5010346;28;20041;-76
2023/06/06 10:21:48;;;;;;;5.20;3.40;;;20.50;99.90;;;;;;5026452;28;21216;-75
2023/06/06 10:24:16;;;;;;;6.53;4.75;;;20.50;99.90;;;;;;5009897;28;20040;-76
2023/06/06 10:26:50;;;;;;;8.90;5.13;;;20.30;99.90;;;;;;5012989;28;20531;-76
2023/06/06 10:29:31;;;;;;;6.20;4.57;;;20.30;99.90;;;;;;5013262;28;20056;-75
2023/06/06 10:32:12;;;;;;;7.13;5.00;;;20.30;99.90;;;;;;5009020;28;20045;-75
2023/06/06 10:34:43;;;;;;;6.55;4.35;;;20.20;99.90;;;;;;5010976;28;20052;-75
2023/06/06 10:37:33;;;;;;;7.85;5.32;;;20.20;99.90;;;;;;5010921;28;20048;-75
2023/06/06 10:40:04;;;;;;;6.57;4.75;;;20.20;99.90;;;;;;5019071;28;20052;-74
2023/06/06 10:42:40;;;;;;;5.70;4.65;;;20.20;99.90;;;;;;5026435;28;23000;-75
2023/06/06 10:45:08;;;;;;;5.88;3.60;;;20.10;99.90;;;;;;5015388;28;20045;-75
2023/06/06 10:47:40;;;;;;;4.18;2.70;;;20.10;99.90;;;;;;5015483;28;20052;-75
2023/06/06 10:50:11;;;;;;;3.17;1.80;;;20.00;99.90;;;;;;5007772;28;20056;-75
2023/06/06 10:52:59;;;;;;;4.28;2.40;;;19.90;99.90;;;;;;5021147;28;20060;-75
2023/06/06 10:55:27;;;;;;;4.10;2.45;;;19.90;99.90;;;;;;5013265;28;20045;-75
2023/06/06 10:58:23;;;;;;;5.55;3.25;;;19.80;99.90;;;;;;5013717;28;20045;-75
2023/06/06 11:00:57;;;;;;;3.85;2.67;;;19.80;99.90;;;;;;5020124;28;20056;-76
2023/06/06 11:03:32;;;;;;;4.47;2.58;;;19.80;99.90;;;;;;5016596;28;20059;-75
2023/06/06 11:06:15;;;;;;;6.15;2.90;;;19.80;99.90;;;;;;5017378;28;20049;-75
2023/06/06 11:08:57;;;;;;;4.63;3.10;;;19.90;99.90;;;;;;5028074;28;20472;-75
2023/06/06 11:11:28;;;;;;;5.80;3.13;;;20.00;99.90;;;;;;5013008;28;20036;-75
2023/06/06 11:14:03;;;;;;;4.97;3.38;;;20.00;99.90;;;;;;5011610;28;20053;-75
2023/06/06 11:16:38;;;;;;;4.78;3.25;;;20.10;99.90;;;;;;5013384;28;20126;-74
2023/06/06 11:19:18;;;;;;;4.63;3.30;;;20.20;99.90;;;;;;5026856;28;20059;-74
2023/06/06 11:21:48;;;;;;;5.88;3.80;;;20.30;99.90;;;;;;5028670;28;20423;-75
2023/06/06 11:24:18;;;;;;;7.38;3.67;;;20.40;99.90;;;;;;5012236;28;20187;-74
2023/06/06 11:26:51;;;;;;;6.40;3.47;;;20.50;99.90;;;;;;5011874;28;20119;-74
2023/06/06 11:29:19;;;;;;;;;;;20.60;99.90;;;;;;5014801;28;20052;-75
2023/06/06 11:31:47;;;;;;;5.93;3.30;;;20.70;99.90;;;;;;5012587;28;19928;-75
2023/06/06 11:34:15;;;;;;;8.15;3.70;;;20.80;99.90;;;;;;5015481;28;20048;-75
2023/06/06 11:36:44;;;;;;;6.82;4.30;;;20.80;99.90;;;;;;5008393;28;20422;-75
2023/06/06 11:39:12;;;;;;;6.57;4.20;;;20.80;99.90;;;;;;5039572;28;20063;-76
2023/06/06 11:41:45;;;;;;;5.68;3.50;;;20.70;99.90;;;;;;5014764;28;21128;-76
2023/06/06 11:44:16;;;;;;;6.38;4.03;;;20.60;99.90;;;;;;5035372;28;20052;-76
2023/06/06 11:46:47;;;;;;;7.63;4.05;;;20.50;99.90;;;;;;5032638;28;20045;-75
2023/06/06 11:49:16;;;;;;;7.78;4.53;;;20.60;99.90;;;;;;5024440;28;20131;-75
2023/06/06 11:51:53;;;;;;;4.93;3.38;;;20.60;99.90;;;;;;5018279;28;20075;-75
2023/06/06 11:54:20;;;;;;;6.68;4.20;;;20.60;99.90;;;;;;5032032;28;20194;-75
2023/06/06 11:56:49;;;;;;;6.03;3.75;;;20.50;99.90;;;;;;5015454;28;20680;-76
2023/06/06 11:59:17;;;;;;;5.20;3.38;;;20.60;99.90;;;;;;5044078;28;20500;-76
2023/06/06 12:01:58;;;;;;;6.57;4.10;;;20.60;99.90;;;;;;5002868;28;20179;-77
2023/06/06 12:04:27;;;;;;;6.18;4.20;;;20.60;99.90;;;;;;5024338;28;20518;-76
2023/06/06 12:06:56;;;;;;;6.43;3.58;;;20.50;99.90;;;;;;5008657;28;20045;-75
2023/06/06 12:09:24;;;;;;;5.40;3.45;;;20.60;99.90;;;;;;5019392;28;20051;-75
2023/06/06 12:12:01;;;;;;;6.18;4.13;;;20.60;99.90;;;;;;5026414;28;20518;-76
2023/06/06 12:14:30;;;;;;;5.82;3.45;;;20.70;99.90;;;;;;5017680;28;22298;-76
2023/06/06 12:17:08;;;;;;;6.05;3.80;;;20.70;99.90;;;;;;5000890;28;20094;-75
2023/06/06 12:19:36;;;;;;;6.22;2.85;;;20.70;99.90;;;;;;5022728;28;21106;-76
2023/06/06 12:22:04;;;;;;;5.95;3.70;;;20.70;99.90;;;;;;5033692;28;20060;-75
2023/06/06 12:24:32;;;;;;;6.88;3.75;;;20.70;99.90;;;;;;5019251;28;20091;-76
2023/06/06 12:27:04;;;;;;;7.05;3.90;;;20.70;99.90;;;;;;5018217;28;20111;-76
2023/06/06 12:29:35;;;;;;;5.93;2.97;;;20.70;99.90;;;;;;5014336;28;20183;-76
2023/06/06 12:32:26;;;;;;;6.30;3.38;;;20.60;99.90;;;;;;5023368;28;20044;-76
2023/06/06 12:35:01;;;;;;;6.55;3.60;;;20.60;99.90;;;;;;5036509;28;20044;-76
2023/06/06 12:37:36;;;;;;;5.93;3.75;;;20.60;99.90;;;;;;5009589;28;20056;-76
2023/06/06 12:40:12;;;;;;;6.07;3.83;;;20.60;99.90;;;;;;5018138;28;20052;-76
2023/06/06 12:42:39;;;;;;;8.65;4.28;;;20.70;99.90;;;;;;5018071;28;23078;-76
2023/06/06 12:45:08;;;;;;;5.15;3.45;;;20.60;99.90;;;;;;5024068;28;20126;-77
2023/06/06 12:47:35;;;;;;;7.97;3.92;;;20.60;99.90;;;;;;5008201;28;20057;-76
2023/06/06 12:50:02;;;;;;;6.07;3.95;;;20.50;99.90;;;;;;5019310;28;20132;-76
2023/06/06 12:52:30;;;;;;;6.97;3.80;;;20.60;99.90;;;;;;5007421;28;20037;-76
2023/06/06 12:54:57;;;;;;;5.85;3.40;;;20.50;99.90;;;;;;5015813;28;20096;-76